sensor_id;sensor_type;location;lat;lon;timestamp;temperature;humidity
48806;DHT22;34625;47.176;27.548;2023-04-12T00:00:34;22.80;59.80
48806;DHT22;34625;47.176;27.548;2023-04-12T00:03:05;22.60;59.90
48806;DHT22;34625;47.176;27.548;2023-04-12T00:05:32;22.60;59.80
48806;DHT22;34625;47.176;27.548;2023-04-12T00:07:59;22.60;60.00
48806;DHT22;34625;47.176;27.548;2023-04-12T00:10:27;22.70;60.10
48806;DHT22;34625;47.176;27.548;2023-04-12T00:12:53;22.80;59.70
48806;DHT22;34625;47.176;27.548;2023-04-12T00:15:20;22.80;59.30
48806;DHT22;34625;47.176;27.548;2023-04-12T00:17:46;22.80;59.30
48806;DHT22;34625;47.176;27.548;2023-04-12T00:20:13;22.70;59.50
48806;DHT22;34625;47.176;27.548;2023-04-12T00:22:41;22.80;59.60
48806;DHT22;34625;47.176;27.548;2023-04-12T00:25:08;22.60;59.50
48806;DHT22;34625;47.176;27.548;2023-04-12T00:27:34;22.70;59.50
48806;DHT22;34625;47.176;27.548;2023-04-12T00:30:00;22.70;59.60
48806;DHT22;34625;47.176;27.548;2023-04-12T00:32:28;22.60;59.60
48806;DHT22;34625;47.176;27.548;2023-04-12T00:34:54;22.60;59.60
48806;DHT22;34625;47.176;27.548;2023-04-12T00:37:20;22.50;59.70
48806;DHT22;34625;47.176;27.548;2023-04-12T00:39:46;22.50;59.70
48806;DHT22;34625;47.176;27.548;2023-04-12T00:42:13;22.60;59.90
48806;DHT22;34625;47.176;27.548;2023-04-12T00:44:39;22.60;60.00
48806;DHT22;34625;47.176;27.548;2023-04-12T00:47:06;22.60;59.80
48806;DHT22;34625;47.176;27.548;2023-04-12T00:49:33;22.60;59.70
48806;DHT22;34625;47.176;27.548;2023-04-12T00:52:01;22.40;59.70
48806;DHT22;34625;47.176;27.548;2023-04-12T00:54:33;22.50;59.80
48806;DHT22;34625;47.176;27.548;2023-04-12T00:57:00;22.50;60.00
48806;DHT22;34625;47.176;27.548;2023-04-12T00:59:26;22.50;59.90
48806;DHT22;34625;47.176;27.548;2023-04-12T01:01:54;22.50;59.80
48806;DHT22;34625;47.176;27.548;2023-04-12T01:04:21;22.40;59.70
48806;DHT22;34625;47.176;27.548;2023-04-12T01:17:29;22.50;59.60
48806;DHT22;34625;47.176;27.548;2023-04-12T01:20:13;22.40;59.50
48806;DHT22;34625;47.176;27.548;2023-04-12T01:22:51;22.50;59.60
48806;DHT22;34625;47.176;27.548;2023-04-12T01:27:59;22.40;59.60
48806;DHT22;34625;47.176;27.548;2023-04-12T01:30:27;22.40;59.70
48806;DHT22;34625;47.176;27.548;2023-04-12T01:32:55;22.30;59.60
48806;DHT22;34625;47.176;27.548;2023-04-12T01:35:31;22.30;59.50
48806;DHT22;34625;47.176;27.548;2023-04-12T01:37:58;22.30;59.40
48806;DHT22;34625;47.176;27.548;2023-04-12T01:40:27;22.40;59.50
48806;DHT22;34625;47.176;27.548;2023-04-12T01:43:09;22.30;59.70
48806;DHT22;34625;47.176;27.548;2023-04-12T01:45:35;22.30;59.70
48806;DHT22;34625;47.176;27.548;2023-04-12T01:48:10;22.20;59.60
48806;DHT22;34625;47.176;27.548;2023-04-12T01:53:18;22.30;59.60
48806;DHT22;34625;47.176;27.548;2023-04-12T01:55:46;22.30;59.60
48806;DHT22;34625;47.176;27.548;2023-04-12T01:58:19;22.50;59.50
48806;DHT22;34625;47.176;27.548;2023-04-12T02:00:46;22.40;59.50
48806;DHT22;34625;47.176;27.548;2023-04-12T02:03:13;22.40;59.50
48806;DHT22;34625;47.176;27.548;2023-04-12T02:05:39;22.40;59.40
48806;DHT22;34625;47.176;27.548;2023-04-12T02:08:05;22.40;59.40
48806;DHT22;34625;47.176;27.548;2023-04-12T02:10:32;22.40;59.50
48806;DHT22;34625;47.176;27.548;2023-04-12T02:13:02;22.30;59.50
48806;DHT22;34625;47.176;27.548;2023-04-12T02:15:29;22.30;59.50
48806;DHT22;34625;47.176;27.548;2023-04-12T02:17:56;22.10;59.40
48806;DHT22;34625;47.176;27.548;2023-04-12T02:20:24;22.20;59.40
48806;DHT22;34625;47.176;27.548;2023-04-12T02:22:50;22.20;59.40
48806;DHT22;34625;47.176;27.548;2023-04-12T02:25:16;22.40;59.50
48806;DHT22;34625;47.176;27.548;2023-04-12T02:27:44;22.20;59.30
48806;DHT22;34625;47.176;27.548;2023-04-12T02:30:12;22.20;59.40
48806;DHT22;34625;47.176;27.548;2023-04-12T02:32:40;22.20;59.40
48806;DHT22;34625;47.176;27.548;2023-04-12T02:35:12;22.20;59.30
48806;DHT22;34625;47.176;27.548;2023-04-12T02:37:39;22.20;59.20
48806;DHT22;34625;47.176;27.548;2023-04-12T02:40:07;22.20;59.20
48806;DHT22;34625;47.176;27.548;2023-04-12T02:42:39;22.10;59.10
48806;DHT22;34625;47.176;27.548;2023-04-12T02:45:06;22.20;59.20
48806;DHT22;34625;47.176;27.548;2023-04-12T02:47:32;22.10;59.20
48806;DHT22;34625;47.176;27.548;2023-04-12T02:50:00;22.30;58.70
48806;DHT22;34625;47.176;27.548;2023-04-12T02:52:28;22.30;59.10
48806;DHT22;34625;47.176;27.548;2023-04-12T02:55:04;22.20;59.00
48806;DHT22;34625;47.176;27.548;2023-04-12T02:57:30;22.30;59.00
48806;DHT22;34625;47.176;27.548;2023-04-12T02:59:56;22.30;59.00
48806;DHT22;34625;47.176;27.548;2023-04-12T03:02:33;22.30;58.90
48806;DHT22;34625;47.176;27.548;2023-04-12T03:05:03;22.20;59.00
48806;DHT22;34625;47.176;27.548;2023-04-12T03:07:47;22.20;59.10
48806;DHT22;34625;47.176;27.548;2023-04-12T03:10:17;22.20;59.20
48806;DHT22;34625;47.176;27.548;2023-04-12T03:12:49;22.10;59.00
48806;DHT22;34625;47.176;27.548;2023-04-12T03:15:19;22.20;59.20
48806;DHT22;34625;47.176;27.548;2023-04-12T03:17:49;22.10;59.20
48806;DHT22;34625;47.176;27.548;2023-04-12T03:20:19;22.10;59.20
48806;DHT22;34625;47.176;27.548;2023-04-12T03:23:07;22.10;59.30
48806;DHT22;34625;47.176;27.548;2023-04-12T03:25:36;22.20;59.10
48806;DHT22;34625;47.176;27.548;2023-04-12T03:28:21;22.30;59.20
48806;DHT22;34625;47.176;27.548;2023-04-12T03:30:51;22.10;58.90
48806;DHT22;34625;47.176;27.548;2023-04-12T03:33:20;22.20;59.00
48806;DHT22;34625;47.176;27.548;2023-04-12T03:35:47;22.20;58.90
48806;DHT22;34625;47.176;27.548;2023-04-12T03:38:14;22.20;58.90
48806;DHT22;34625;47.176;27.548;2023-04-12T03:40:42;22.10;59.00
48806;DHT22;34625;47.176;27.548;2023-04-12T03:43:08;22.10;59.20
48806;DHT22;34625;47.176;27.548;2023-04-12T03:45:35;22.10;58.50
48806;DHT22;34625;47.176;27.548;2023-04-12T03:48:02;22.20;58.80
48806;DHT22;34625;47.176;27.548;2023-04-12T03:50:35;22.20;58.80
48806;DHT22;34625;47.176;27.548;2023-04-12T03:53:10;22.20;58.60
48806;DHT22;34625;47.176;27.548;2023-04-12T03:55:38;22.30;58.50
48806;DHT22;34625;47.176;27.548;2023-04-12T03:58:06;22.40;58.40
48806;DHT22;34625;47.176;27.548;2023-04-12T04:00:39;22.40;58.10
48806;DHT22;34625;47.176;27.548;2023-04-12T04:03:07;22.30;58.60
48806;DHT22;34625;47.176;27.548;2023-04-12T04:05:41;22.60;61.50
48806;DHT22;34625;47.176;27.548;2023-04-12T04:08:08;22.80;63.50
48806;DHT22;34625;47.176;27.548;2023-04-12T04:10:53;23.10;63.40
48806;DHT22;34625;47.176;27.548;2023-04-12T04:13:23;23.40;63.70
48806;DHT22;34625;47.176;27.548;2023-04-12T04:16:03;23.20;59.00
48806;DHT22;34625;47.176;27.548;2023-04-12T04:18:30;23.30;57.70
48806;DHT22;34625;47.176;27.548;2023-04-12T04:20:57;23.10;56.10
48806;DHT22;34625;47.176;27.548;2023-04-12T04:23:23;23.10;55.90
48806;DHT22;34625;47.176;27.548;2023-04-12T04:25:50;23.00;56.20
48806;DHT22;34625;47.176;27.548;2023-04-12T04:28:18;22.90;56.80
48806;DHT22;34625;47.176;27.548;2023-04-12T04:30:45;22.70;57.20
48806;DHT22;34625;47.176;27.548;2023-04-12T04:33:14;22.80;57.30
48806;DHT22;34625;47.176;27.548;2023-04-12T04:35:41;22.70;58.00
48806;DHT22;34625;47.176;27.548;2023-04-12T04:38:27;22.60;58.50
48806;DHT22;34625;47.176;27.548;2023-04-12T04:41:02;22.70;58.80
48806;DHT22;34625;47.176;27.548;2023-04-12T04:43:43;22.50;59.00
48806;DHT22;34625;47.176;27.548;2023-04-12T04:46:12;22.70;58.90
48806;DHT22;34625;47.176;27.548;2023-04-12T04:48:38;22.70;58.50
48806;DHT22;34625;47.176;27.548;2023-04-12T04:51:05;22.90;58.40
48806;DHT22;34625;47.176;27.548;2023-04-12T04:53:31;22.80;58.00
48806;DHT22;34625;47.176;27.548;2023-04-12T04:55:59;22.80;55.60
48806;DHT22;34625;47.176;27.548;2023-04-12T04:58:30;22.70;53.00
48806;DHT22;34625;47.176;27.548;2023-04-12T05:00:58;22.80;52.90
48806;DHT22;34625;47.176;27.548;2023-04-12T05:03:27;22.80;52.00
48806;DHT22;34625;47.176;27.548;2023-04-12T05:05:55;22.80;52.20
48806;DHT22;34625;47.176;27.548;2023-04-12T05:08:22;22.80;51.30
48806;DHT22;34625;47.176;27.548;2023-04-12T05:10:51;22.90;52.50
48806;DHT22;34625;47.176;27.548;2023-04-12T05:13:19;22.80;52.60
48806;DHT22;34625;47.176;27.548;2023-04-12T05:15:47;22.80;54.30
48806;DHT22;34625;47.176;27.548;2023-04-12T05:18:14;23.00;54.60
48806;DHT22;34625;47.176;27.548;2023-04-12T05:20:40;23.00;53.80
48806;DHT22;34625;47.176;27.548;2023-04-12T05:23:06;22.90;54.70
48806;DHT22;34625;47.176;27.548;2023-04-12T05:25:33;23.00;55.60
48806;DHT22;34625;47.176;27.548;2023-04-12T05:28:04;23.10;54.00
48806;DHT22;34625;47.176;27.548;2023-04-12T05:30:32;23.00;51.90
48806;DHT22;34625;47.176;27.548;2023-04-12T05:32:59;23.00;51.10
48806;DHT22;34625;47.176;27.548;2023-04-12T05:35:26;23.00;49.80
48806;DHT22;34625;47.176;27.548;2023-04-12T05:37:57;22.90;49.20
48806;DHT22;34625;47.176;27.548;2023-04-12T05:40:23;23.00;51.70
48806;DHT22;34625;47.176;27.548;2023-04-12T05:42:51;23.10;58.20
48806;DHT22;34625;47.176;27.548;2023-04-12T05:45:17;23.20;59.10
48806;DHT22;34625;47.176;27.548;2023-04-12T05:47:44;23.20;59.70
48806;DHT22;34625;47.176;27.548;2023-04-12T05:50:10;23.20;60.20
48806;DHT22;34625;47.176;27.548;2023-04-12T05:52:37;23.30;60.40
48806;DHT22;34625;47.176;27.548;2023-04-12T05:55:05;23.20;60.30
48806;DHT22;34625;47.176;27.548;2023-04-12T05:57:32;23.20;60.70
48806;DHT22;34625;47.176;27.548;2023-04-12T05:59:58;23.20;60.40
48806;DHT22;34625;47.176;27.548;2023-04-12T06:02:25;23.20;59.50
48806;DHT22;34625;47.176;27.548;2023-04-12T06:04:52;23.30;58.50
48806;DHT22;34625;47.176;27.548;2023-04-12T06:07:20;23.30;57.80
48806;DHT22;34625;47.176;27.548;2023-04-12T06:09:46;23.30;58.20
48806;DHT22;34625;47.176;27.548;2023-04-12T06:12:13;23.40;58.00
48806;DHT22;34625;47.176;27.548;2023-04-12T06:14:39;23.30;57.90
48806;DHT22;34625;47.176;27.548;2023-04-12T06:17:05;23.30;60.40
48806;DHT22;34625;47.176;27.548;2023-04-12T06:19:32;23.40;59.20
48806;DHT22;34625;47.176;27.548;2023-04-12T06:21:58;23.50;58.60
48806;DHT22;34625;47.176;27.548;2023-04-12T06:24:25;23.40;57.60
48806;DHT22;34625;47.176;27.548;2023-04-12T06:26:51;23.50;57.90
48806;DHT22;34625;47.176;27.548;2023-04-12T06:29:18;23.40;57.80
48806;DHT22;34625;47.176;27.548;2023-04-12T06:31:45;23.30;55.70
48806;DHT22;34625;47.176;27.548;2023-04-12T06:34:11;23.30;57.80
48806;DHT22;34625;47.176;27.548;2023-04-12T06:36:38;23.20;55.10
48806;DHT22;34625;47.176;27.548;2023-04-12T06:39:07;23.40;57.70
48806;DHT22;34625;47.176;27.548;2023-04-12T06:41:34;23.40;57.70
48806;DHT22;34625;47.176;27.548;2023-04-12T06:44:00;23.40;57.40
48806;DHT22;34625;47.176;27.548;2023-04-12T06:46:27;23.30;57.10
48806;DHT22;34625;47.176;27.548;2023-04-12T06:48:53;23.40;56.80
48806;DHT22;34625;47.176;27.548;2023-04-12T06:51:19;23.40;56.50
48806;DHT22;34625;47.176;27.548;2023-04-12T06:53:45;23.30;56.30
48806;DHT22;34625;47.176;27.548;2023-04-12T06:56:11;23.40;56.70
48806;DHT22;34625;47.176;27.548;2023-04-12T06:58:37;23.40;52.70
48806;DHT22;34625;47.176;27.548;2023-04-12T07:01:07;23.30;55.90
48806;DHT22;34625;47.176;27.548;2023-04-12T07:03:35;23.30;56.30
48806;DHT22;34625;47.176;27.548;2023-04-12T07:06:01;23.20;56.70
48806;DHT22;34625;47.176;27.548;2023-04-12T07:08:30;23.30;56.40
48806;DHT22;34625;47.176;27.548;2023-04-12T07:10:57;23.30;57.60
48806;DHT22;34625;47.176;27.548;2023-04-12T07:13:23;23.20;57.50
48806;DHT22;34625;47.176;27.548;2023-04-12T07:15:49;23.00;57.90
48806;DHT22;34625;47.176;27.548;2023-04-12T07:18:15;23.10;57.80
48806;DHT22;34625;47.176;27.548;2023-04-12T07:20:42;23.20;58.20
48806;DHT22;34625;47.176;27.548;2023-04-12T07:23:08;23.10;58.80
48806;DHT22;34625;47.176;27.548;2023-04-12T07:25:38;23.10;58.70
48806;DHT22;34625;47.176;27.548;2023-04-12T07:28:04;23.00;59.00
48806;DHT22;34625;47.176;27.548;2023-04-12T07:30:30;23.10;59.00
48806;DHT22;34625;47.176;27.548;2023-04-12T07:32:57;23.20;61.30
48806;DHT22;34625;47.176;27.548;2023-04-12T07:35:26;23.10;60.10
48806;DHT22;34625;47.176;27.548;2023-04-12T07:37:52;23.20;59.80
48806;DHT22;34625;47.176;27.548;2023-04-12T07:40:19;23.20;59.50
48806;DHT22;34625;47.176;27.548;2023-04-12T07:42:45;23.10;57.30
48806;DHT22;34625;47.176;27.548;2023-04-12T07:45:11;23.10;58.30
48806;DHT22;34625;47.176;27.548;2023-04-12T07:47:37;23.10;59.20
48806;DHT22;34625;47.176;27.548;2023-04-12T07:50:03;23.10;59.60
48806;DHT22;34625;47.176;27.548;2023-04-12T07:52:31;23.20;58.70
48806;DHT22;34625;47.176;27.548;2023-04-12T07:54:57;23.20;58.70
48806;DHT22;34625;47.176;27.548;2023-04-12T07:57:23;23.30;58.40
48806;DHT22;34625;47.176;27.548;2023-04-12T07:59:49;23.20;59.20
48806;DHT22;34625;47.176;27.548;2023-04-12T08:02:15;23.10;58.40
48806;DHT22;34625;47.176;27.548;2023-04-12T08:04:50;23.20;59.60
48806;DHT22;34625;47.176;27.548;2023-04-12T08:07:16;23.00;59.40
48806;DHT22;34625;47.176;27.548;2023-04-12T08:09:42;23.00;60.00
48806;DHT22;34625;47.176;27.548;2023-04-12T08:12:08;23.10;60.20
48806;DHT22;34625;47.176;27.548;2023-04-12T08:14:34;23.20;60.30
48806;DHT22;34625;47.176;27.548;2023-04-12T08:17:00;23.10;60.60
48806;DHT22;34625;47.176;27.548;2023-04-12T08:19:26;23.10;60.60
48806;DHT22;34625;47.176;27.548;2023-04-12T08:21:52;23.10;60.60
48806;DHT22;34625;47.176;27.548;2023-04-12T08:24:18;23.10;60.80
48806;DHT22;34625;47.176;27.548;2023-04-12T08:26:45;23.10;61.00
48806;DHT22;34625;47.176;27.548;2023-04-12T08:29:11;23.10;60.80
48806;DHT22;34625;47.176;27.548;2023-04-12T08:31:38;23.10;60.50
48806;DHT22;34625;47.176;27.548;2023-04-12T08:34:04;23.20;61.00
48806;DHT22;34625;47.176;27.548;2023-04-12T08:36:31;23.00;60.90
48806;DHT22;34625;47.176;27.548;2023-04-12T08:38:58;23.10;60.90
48806;DHT22;34625;47.176;27.548;2023-04-12T08:41:25;23.20;61.00
48806;DHT22;34625;47.176;27.548;2023-04-12T08:43:51;23.20;60.40
48806;DHT22;34625;47.176;27.548;2023-04-12T08:46:23;23.30;60.30
48806;DHT22;34625;47.176;27.548;2023-04-12T08:48:50;23.20;63.20
48806;DHT22;34625;47.176;27.548;2023-04-12T08:51:25;23.30;64.30
48806;DHT22;34625;47.176;27.548;2023-04-12T08:53:51;23.50;65.10
48806;DHT22;34625;47.176;27.548;2023-04-12T08:56:19;23.70;64.70
48806;DHT22;34625;47.176;27.548;2023-04-12T08:58:47;23.80;60.90
48806;DHT22;34625;47.176;27.548;2023-04-12T09:01:14;23.80;60.00
48806;DHT22;34625;47.176;27.548;2023-04-12T09:03:42;23.80;59.50
48806;DHT22;34625;47.176;27.548;2023-04-12T09:06:12;23.80;59.20
48806;DHT22;34625;47.176;27.548;2023-04-12T09:08:55;23.70;58.20
48806;DHT22;34625;47.176;27.548;2023-04-12T09:11:28;23.70;55.60
48806;DHT22;34625;47.176;27.548;2023-04-12T09:13:55;23.70;59.20
48806;DHT22;34625;47.176;27.548;2023-04-12T09:19:00;23.70;58.80
48806;DHT22;34625;47.176;27.548;2023-04-12T09:21:27;23.80;57.90
48806;DHT22;34625;47.176;27.548;2023-04-12T09:24:08;23.60;56.40
48806;DHT22;34625;47.176;27.548;2023-04-12T09:26:36;23.70;58.90
48806;DHT22;34625;47.176;27.548;2023-04-12T09:29:05;23.70;58.00
48806;DHT22;34625;47.176;27.548;2023-04-12T09:31:31;23.80;58.60
48806;DHT22;34625;47.176;27.548;2023-04-12T09:34:07;24.10;58.60
48806;DHT22;34625;47.176;27.548;2023-04-12T09:36:37;24.20;54.70
48806;DHT22;34625;47.176;27.548;2023-04-12T09:39:04;24.20;52.30
48806;DHT22;34625;47.176;27.548;2023-04-12T09:41:31;24.10;52.40
48806;DHT22;34625;47.176;27.548;2023-04-12T09:43:58;24.10;51.30
48806;DHT22;34625;47.176;27.548;2023-04-12T09:46:24;24.20;47.30
48806;DHT22;34625;47.176;27.548;2023-04-12T09:48:53;24.30;50.90
48806;DHT22;34625;47.176;27.548;2023-04-12T09:51:30;24.30;59.30
48806;DHT22;34625;47.176;27.548;2023-04-12T09:54:01;24.80;62.20
48806;DHT22;34625;47.176;27.548;2023-04-12T09:56:29;24.80;49.90
48806;DHT22;34625;47.176;27.548;2023-04-12T09:59:03;24.90;49.60
48806;DHT22;34625;47.176;27.548;2023-04-12T10:01:42;24.60;44.60
48806;DHT22;34625;47.176;27.548;2023-04-12T10:04:08;24.70;51.20
48806;DHT22;34625;47.176;27.548;2023-04-12T10:06:35;24.60;52.20
48806;DHT22;34625;47.176;27.548;2023-04-12T10:09:05;24.40;52.80
48806;DHT22;34625;47.176;27.548;2023-04-12T10:11:31;24.40;56.10
48806;DHT22;34625;47.176;27.548;2023-04-12T10:14:05;24.40;55.70
48806;DHT22;34625;47.176;27.548;2023-04-12T10:16:33;24.30;56.50
48806;DHT22;34625;47.176;27.548;2023-04-12T10:19:03;24.30;57.20
48806;DHT22;34625;47.176;27.548;2023-04-12T10:21:29;24.70;58.20
48806;DHT22;34625;47.176;27.548;2023-04-12T10:23:56;24.90;59.80
48806;DHT22;34625;47.176;27.548;2023-04-12T10:26:23;25.30;57.50
48806;DHT22;34625;47.176;27.548;2023-04-12T10:29:24;25.40;52.50
48806;DHT22;34625;47.176;27.548;2023-04-12T10:31:54;25.40;53.10
48806;DHT22;34625;47.176;27.548;2023-04-12T10:34:28;25.30;57.20
48806;DHT22;34625;47.176;27.548;2023-04-12T10:37:08;25.00;57.40
48806;DHT22;34625;47.176;27.548;2023-04-12T10:42:17;25.00;56.70
48806;DHT22;34625;47.176;27.548;2023-04-12T10:44:49;24.80;57.70
48806;DHT22;34625;47.176;27.548;2023-04-12T10:47:56;24.80;57.80
48806;DHT22;34625;47.176;27.548;2023-04-12T10:50:29;24.70;58.10
48806;DHT22;34625;47.176;27.548;2023-04-12T10:55:38;24.80;58.20
48806;DHT22;34625;47.176;27.548;2023-04-12T10:58:04;24.70;58.20
48806;DHT22;34625;47.176;27.548;2023-04-12T11:03:25;24.80;58.40
48806;DHT22;34625;47.176;27.548;2023-04-12T11:06:04;24.70;58.40
48806;DHT22;34625;47.176;27.548;2023-04-12T11:08:53;24.60;57.60
48806;DHT22;34625;47.176;27.548;2023-04-12T11:11:33;24.60;58.70
48806;DHT22;34625;47.176;27.548;2023-04-12T11:14:00;24.70;58.80
48806;DHT22;34625;47.176;27.548;2023-04-12T11:16:27;24.70;58.80
48806;DHT22;34625;47.176;27.548;2023-04-12T11:18:53;24.60;58.70
48806;DHT22;34625;47.176;27.548;2023-04-12T11:21:19;24.60;58.40
48806;DHT22;34625;47.176;27.548;2023-04-12T11:23:46;24.60;58.60
48806;DHT22;34625;47.176;27.548;2023-04-12T11:26:18;24.50;58.50
48806;DHT22;34625;47.176;27.548;2023-04-12T11:28:45;24.50;59.00
48806;DHT22;34625;47.176;27.548;2023-04-12T11:31:12;24.40;59.20
48806;DHT22;34625;47.176;27.548;2023-04-12T11:33:40;24.40;59.50
48806;DHT22;34625;47.176;27.548;2023-04-12T11:36:11;24.30;59.70
48806;DHT22;34625;47.176;27.548;2023-04-12T11:38:38;24.20;60.00
48806;DHT22;34625;47.176;27.548;2023-04-12T11:41:07;24.40;60.20
48806;DHT22;34625;47.176;27.548;2023-04-12T11:43:35;24.20;59.90
48806;DHT22;34625;47.176;27.548;2023-04-12T11:46:03;24.10;60.40
48806;DHT22;34625;47.176;27.548;2023-04-12T11:48:29;24.20;60.30
48806;DHT22;34625;47.176;27.548;2023-04-12T11:50:56;24.20;60.20
48806;DHT22;34625;47.176;27.548;2023-04-12T11:53:27;24.00;60.10
48806;DHT22;34625;47.176;27.548;2023-04-12T11:55:57;24.30;61.30
48806;DHT22;34625;47.176;27.548;2023-04-12T11:58:26;24.20;63.90
48806;DHT22;34625;47.176;27.548;2023-04-12T12:00:53;24.10;61.20
48806;DHT22;34625;47.176;27.548;2023-04-12T12:03:20;24.00;62.70
48806;DHT22;34625;47.176;27.548;2023-04-12T12:05:46;23.90;59.40
48806;DHT22;34625;47.176;27.548;2023-04-12T12:08:14;23.90;61.80
48806;DHT22;34625;47.176;27.548;2023-04-12T12:10:40;24.00;62.30
48806;DHT22;34625;47.176;27.548;2023-04-12T12:13:11;24.00;61.80
48806;DHT22;34625;47.176;27.548;2023-04-12T12:15:37;24.00;61.50
48806;DHT22;34625;47.176;27.548;2023-04-12T12:18:06;24.00;61.30
48806;DHT22;34625;47.176;27.548;2023-04-12T12:20:56;24.10;61.50
48806;DHT22;34625;47.176;27.548;2023-04-12T12:23:31;24.00;60.90
48806;DHT22;34625;47.176;27.548;2023-04-12T12:25:58;24.20;60.90
48806;DHT22;34625;47.176;27.548;2023-04-12T12:28:25;24.10;61.40
48806;DHT22;34625;47.176;27.548;2023-04-12T12:30:56;24.20;60.80
48806;DHT22;34625;47.176;27.548;2023-04-12T12:33:22;24.10;61.00
48806;DHT22;34625;47.176;27.548;2023-04-12T12:35:58;24.10;60.90
48806;DHT22;34625;47.176;27.548;2023-04-12T12:38:24;24.30;61.00
48806;DHT22;34625;47.176;27.548;2023-04-12T12:41:19;24.20;60.80
48806;DHT22;34625;47.176;27.548;2023-04-12T12:43:47;24.30;60.20
48806;DHT22;34625;47.176;27.548;2023-04-12T12:46:13;24.20;59.20
48806;DHT22;34625;47.176;27.548;2023-04-12T12:48:40;24.20;60.10
48806;DHT22;34625;47.176;27.548;2023-04-12T12:51:10;24.30;59.70
48806;DHT22;34625;47.176;27.548;2023-04-12T12:53:40;24.20;60.20
48806;DHT22;34625;47.176;27.548;2023-04-12T12:56:11;24.30;60.60
48806;DHT22;34625;47.176;27.548;2023-04-12T12:58:37;24.30;60.40
48806;DHT22;34625;47.176;27.548;2023-04-12T13:01:03;24.30;59.90
48806;DHT22;34625;47.176;27.548;2023-04-12T13:03:30;24.30;60.00
48806;DHT22;34625;47.176;27.548;2023-04-12T13:05:56;24.30;59.80
48806;DHT22;34625;47.176;27.548;2023-04-12T13:08:25;24.40;60.00
48806;DHT22;34625;47.176;27.548;2023-04-12T13:10:52;24.50;60.00
48806;DHT22;34625;47.176;27.548;2023-04-12T13:13:18;24.40;59.70
48806;DHT22;34625;47.176;27.548;2023-04-12T13:15:44;24.30;59.70
48806;DHT22;34625;47.176;27.548;2023-04-12T13:18:12;24.40;59.70
48806;DHT22;34625;47.176;27.548;2023-04-12T13:20:41;24.30;59.60
48806;DHT22;34625;47.176;27.548;2023-04-12T13:23:07;24.40;59.60
48806;DHT22;34625;47.176;27.548;2023-04-12T13:25:33;24.30;58.60
48806;DHT22;34625;47.176;27.548;2023-04-12T13:27:59;24.40;59.60
48806;DHT22;34625;47.176;27.548;2023-04-12T13:30:26;24.40;59.50
48806;DHT22;34625;47.176;27.548;2023-04-12T13:32:54;24.50;59.60
48806;DHT22;34625;47.176;27.548;2023-04-12T13:35:20;24.40;59.00
48806;DHT22;34625;47.176;27.548;2023-04-12T13:37:47;24.30;59.30
48806;DHT22;34625;47.176;27.548;2023-04-12T13:40:13;24.40;59.50
48806;DHT22;34625;47.176;27.548;2023-04-12T13:42:39;24.40;59.50
48806;DHT22;34625;47.176;27.548;2023-04-12T13:45:06;24.30;59.40
48806;DHT22;34625;47.176;27.548;2023-04-12T13:47:33;24.30;59.20
48806;DHT22;34625;47.176;27.548;2023-04-12T13:50:00;24.30;59.30
48806;DHT22;34625;47.176;27.548;2023-04-12T13:52:26;24.40;59.20
48806;DHT22;34625;47.176;27.548;2023-04-12T13:54:52;24.30;59.30
48806;DHT22;34625;47.176;27.548;2023-04-12T13:57:18;24.30;59.30
48806;DHT22;34625;47.176;27.548;2023-04-12T13:59:44;24.30;59.20
48806;DHT22;34625;47.176;27.548;2023-04-12T14:02:10;24.10;59.20
48806;DHT22;34625;47.176;27.548;2023-04-12T14:04:52;24.10;59.40
48806;DHT22;34625;47.176;27.548;2023-04-12T14:07:18;24.20;59.50
48806;DHT22;34625;47.176;27.548;2023-04-12T14:09:45;24.10;59.70
48806;DHT22;34625;47.176;27.548;2023-04-12T14:12:13;24.10;59.90
48806;DHT22;34625;47.176;27.548;2023-04-12T14:14:39;24.00;59.80
48806;DHT22;34625;47.176;27.548;2023-04-12T14:17:05;24.20;59.80
48806;DHT22;34625;47.176;27.548;2023-04-12T14:19:31;24.00;59.50
48806;DHT22;34625;47.176;27.548;2023-04-12T14:21:57;24.10;59.90
48806;DHT22;34625;47.176;27.548;2023-04-12T14:24:23;24.20;59.90
48806;DHT22;34625;47.176;27.548;2023-04-12T14:26:49;24.20;59.90
48806;DHT22;34625;47.176;27.548;2023-04-12T14:29:15;24.10;59.80
48806;DHT22;34625;47.176;27.548;2023-04-12T14:31:42;24.10;60.00
48806;DHT22;34625;47.176;27.548;2023-04-12T14:34:08;24.10;59.70
48806;DHT22;34625;47.176;27.548;2023-04-12T14:36:35;24.20;60.00
48806;DHT22;34625;47.176;27.548;2023-04-12T14:39:01;24.10;60.10
48806;DHT22;34625;47.176;27.548;2023-04-12T14:41:31;24.10;59.90
48806;DHT22;34625;47.176;27.548;2023-04-12T14:44:00;24.10;60.10
48806;DHT22;34625;47.176;27.548;2023-04-12T14:46:26;24.10;60.30
48806;DHT22;34625;47.176;27.548;2023-04-12T14:48:53;24.10;60.40
48806;DHT22;34625;47.176;27.548;2023-04-12T14:51:19;24.00;60.00
48806;DHT22;34625;47.176;27.548;2023-04-12T14:53:45;24.10;60.10
48806;DHT22;34625;47.176;27.548;2023-04-12T14:56:19;24.10;60.40
48806;DHT22;34625;47.176;27.548;2023-04-12T14:58:45;24.10;59.10
48806;DHT22;34625;47.176;27.548;2023-04-12T15:01:11;24.10;59.80
48806;DHT22;34625;47.176;27.548;2023-04-12T15:03:38;24.10;59.20
48806;DHT22;34625;47.176;27.548;2023-04-12T15:06:07;24.10;59.20
48806;DHT22;34625;47.176;27.548;2023-04-12T15:08:33;24.00;59.60
48806;DHT22;34625;47.176;27.548;2023-04-12T15:11:10;24.00;61.80
48806;DHT22;34625;47.176;27.548;2023-04-12T15:13:38;24.20;65.20
48806;DHT22;34625;47.176;27.548;2023-04-12T15:16:08;24.60;66.00
48806;DHT22;34625;47.176;27.548;2023-04-12T15:18:37;24.70;67.80
48806;DHT22;34625;47.176;27.548;2023-04-12T15:21:10;25.10;68.50
48806;DHT22;34625;47.176;27.548;2023-04-12T15:23:39;25.10;73.20
48806;DHT22;34625;47.176;27.548;2023-04-12T15:26:06;25.30;67.30
48806;DHT22;34625;47.176;27.548;2023-04-12T15:28:34;25.10;64.20
48806;DHT22;34625;47.176;27.548;2023-04-12T15:31:01;25.00;63.90
48806;DHT22;34625;47.176;27.548;2023-04-12T15:33:27;25.10;63.40
48806;DHT22;34625;47.176;27.548;2023-04-12T15:35:54;25.00;62.20
48806;DHT22;34625;47.176;27.548;2023-04-12T15:38:23;25.00;60.40
48806;DHT22;34625;47.176;27.548;2023-04-12T15:40:57;25.20;57.20
48806;DHT22;34625;47.176;27.548;2023-04-12T15:43:25;25.00;57.70
48806;DHT22;34625;47.176;27.548;2023-04-12T15:45:52;25.00;55.40
48806;DHT22;34625;47.176;27.548;2023-04-12T15:48:23;24.70;56.90
48806;DHT22;34625;47.176;27.548;2023-04-12T15:50:50;24.70;57.00